sensor_id;sensor_type;location;lat;lon;timestamp;temperature;humidity
78550;DHT22;68091;52.130;5.570;2023-03-24T00:00:58;11.50;97.50
78550;DHT22;68091;52.130;5.570;2023-03-24T00:03:24;11.50;97.50
78550;DHT22;68091;52.130;5.570;2023-03-24T00:05:55;11.50;97.40
78550;DHT22;68091;52.130;5.570;2023-03-24T00:08:23;11.60;97.40
78550;DHT22;68091;52.130;5.570;2023-03-24T00:10:49;11.50;97.60
78550;DHT22;68091;52.130;5.570;2023-03-24T00:13:15;11.50;97.50
78550;DHT22;68091;52.130;5.570;2023-03-24T00:15:41;11.50;97.50
78550;DHT22;68091;52.130;5.570;2023-03-24T00:18:07;11.50;97.50
78550;DHT22;68091;52.130;5.570;2023-03-24T00:20:35;11.50;97.50
78550;DHT22;68091;52.130;5.570;2023-03-24T00:23:03;11.50;97.60
78550;DHT22;68091;52.130;5.570;2023-03-24T00:25:30;11.50;97.50
78550;DHT22;68091;52.130;5.570;2023-03-24T00:28:00;11.60;97.50
78550;DHT22;68091;52.130;5.570;2023-03-24T00:30:28;11.50;97.60
78550;DHT22;68091;52.130;5.570;2023-03-24T00:32:54;11.50;97.70
78550;DHT22;68091;52.130;5.570;2023-03-24T00:35:22;11.50;97.70
78550;DHT22;68091;52.130;5.570;2023-03-24T00:37:51;11.60;97.80
78550;DHT22;68091;52.130;5.570;2023-03-24T00:40:18;11.50;97.80
78550;DHT22;68091;52.130;5.570;2023-03-24T00:42:49;11.50;97.70
78550;DHT22;68091;52.130;5.570;2023-03-24T00:45:17;11.60;97.70
78550;DHT22;68091;52.130;5.570;2023-03-24T00:47:44;11.60;97.80
78550;DHT22;68091;52.130;5.570;2023-03-24T00:50:16;11.50;97.70
78550;DHT22;68091;52.130;5.570;2023-03-24T00:52:42;11.50;97.80
78550;DHT22;68091;52.130;5.570;2023-03-24T00:55:14;11.50;98.00
78550;DHT22;68091;52.130;5.570;2023-03-24T00:57:46;11.50;98.00
78550;DHT22;68091;52.130;5.570;2023-03-24T01:00:21;11.60;97.80
78550;DHT22;68091;52.130;5.570;2023-03-24T01:02:56;11.60;97.90
78550;DHT22;68091;52.130;5.570;2023-03-24T01:05:25;11.60;97.80
78550;DHT22;68091;52.130;5.570;2023-03-24T01:08:02;11.70;97.70
78550;DHT22;68091;52.130;5.570;2023-03-24T01:10:33;11.70;97.60
78550;DHT22;68091;52.130;5.570;2023-03-24T01:13:00;11.70;97.70
78550;DHT22;68091;52.130;5.570;2023-03-24T01:15:31;11.70;97.80
78550;DHT22;68091;52.130;5.570;2023-03-24T01:17:58;11.70;97.80
78550;DHT22;68091;52.130;5.570;2023-03-24T01:20:27;11.70;97.60
78550;DHT22;68091;52.130;5.570;2023-03-24T01:23:16;11.80;97.50
78550;DHT22;68091;52.130;5.570;2023-03-24T01:25:42;11.80;97.60
78550;DHT22;68091;52.130;5.570;2023-03-24T01:28:11;11.70;97.60
78550;DHT22;68091;52.130;5.570;2023-03-24T01:30:38;11.80;97.50
78550;DHT22;68091;52.130;5.570;2023-03-24T01:33:07;11.80;97.90
78550;DHT22;68091;52.130;5.570;2023-03-24T01:35:33;11.80;97.60
78550;DHT22;68091;52.130;5.570;2023-03-24T01:38:07;11.80;97.70
78550;DHT22;68091;52.130;5.570;2023-03-24T01:40:45;11.80;97.40
78550;DHT22;68091;52.130;5.570;2023-03-24T01:43:21;11.80;97.40
78550;DHT22;68091;52.130;5.570;2023-03-24T01:45:59;11.90;97.40
78550;DHT22;68091;52.130;5.570;2023-03-24T01:51:15;11.90;97.40
78550;DHT22;68091;52.130;5.570;2023-03-24T01:53:53;11.90;97.30
78550;DHT22;68091;52.130;5.570;2023-03-24T01:56:21;11.90;97.20
78550;DHT22;68091;52.130;5.570;2023-03-24T01:58:58;11.90;97.40
78550;DHT22;68091;52.130;5.570;2023-03-24T02:01:29;11.90;97.50
78550;DHT22;68091;52.130;5.570;2023-03-24T02:04:01;11.90;97.50
78550;DHT22;68091;52.130;5.570;2023-03-24T02:06:29;11.90;97.60
78550;DHT22;68091;52.130;5.570;2023-03-24T02:08:58;11.90;97.60
78550;DHT22;68091;52.130;5.570;2023-03-24T02:11:29;11.90;97.50
78550;DHT22;68091;52.130;5.570;2023-03-24T02:13:59;11.90;97.50
78550;DHT22;68091;52.130;5.570;2023-03-24T02:16:57;11.90;97.60
78550;DHT22;68091;52.130;5.570;2023-03-24T02:28:25;12.00;97.60
78550;DHT22;68091;52.130;5.570;2023-03-24T02:40:29;12.00;97.80
78550;DHT22;68091;52.130;5.570;2023-03-24T02:51:34;11.80;97.90
78550;DHT22;68091;52.130;5.570;2023-03-24T02:56:55;11.60;98.40
78550;DHT22;68091;52.130;5.570;2023-03-24T02:59:44;11.60;98.40
78550;DHT22;68091;52.130;5.570;2023-03-24T03:02:18;11.60;98.20
78550;DHT22;68091;52.130;5.570;2023-03-24T03:04:52;11.50;98.20
78550;DHT22;68091;52.130;5.570;2023-03-24T03:07:24;11.40;98.40
78550;DHT22;68091;52.130;5.570;2023-03-24T03:10:14;11.30;98.40
78550;DHT22;68091;52.130;5.570;2023-03-24T03:12:42;11.30;98.20
78550;DHT22;68091;52.130;5.570;2023-03-24T03:15:15;11.20;98.30
78550;DHT22;68091;52.130;5.570;2023-03-24T03:20:57;11.30;97.80
78550;DHT22;68091;52.130;5.570;2023-03-24T03:23:38;11.20;97.80
78550;DHT22;68091;52.130;5.570;2023-03-24T03:26:09;11.00;96.30
78550;DHT22;68091;52.130;5.570;2023-03-24T03:28:41;10.80;96.40
78550;DHT22;68091;52.130;5.570;2023-03-24T03:31:21;10.60;96.20
78550;DHT22;68091;52.130;5.570;2023-03-24T03:39:48;10.50;96.60
78550;DHT22;68091;52.130;5.570;2023-03-24T03:42:15;10.40;96.40
78550;DHT22;68091;52.130;5.570;2023-03-24T03:44:41;10.40;96.10
78550;DHT22;68091;52.130;5.570;2023-03-24T03:47:07;10.50;96.00
78550;DHT22;68091;52.130;5.570;2023-03-24T03:49:33;10.20;96.00
78550;DHT22;68091;52.130;5.570;2023-03-24T03:51:59;10.20;95.80
78550;DHT22;68091;52.130;5.570;2023-03-24T03:54:27;10.30;95.60
78550;DHT22;68091;52.130;5.570;2023-03-24T03:56:55;10.20;95.40
78550;DHT22;68091;52.130;5.570;2023-03-24T03:59:29;10.10;95.60
78550;DHT22;68091;52.130;5.570;2023-03-24T04:01:55;10.10;95.80
78550;DHT22;68091;52.130;5.570;2023-03-24T04:04:38;10.00;95.80
78550;DHT22;68091;52.130;5.570;2023-03-24T04:07:16;10.10;96.00
78550;DHT22;68091;52.130;5.570;2023-03-24T04:15:31;10.00;96.60
78550;DHT22;68091;52.130;5.570;2023-03-24T04:23:36;10.10;96.60
78550;DHT22;68091;52.130;5.570;2023-03-24T04:26:20;10.10;96.40
78550;DHT22;68091;52.130;5.570;2023-03-24T04:28:57;10.00;96.60
78550;DHT22;68091;52.130;5.570;2023-03-24T04:31:38;10.00;96.80
78550;DHT22;68091;52.130;5.570;2023-03-24T04:34:26;9.90;97.10
78550;DHT22;68091;52.130;5.570;2023-03-24T04:37:12;9.90;97.90
78550;DHT22;68091;52.130;5.570;2023-03-24T04:39:42;9.80;97.80
78550;DHT22;68091;52.130;5.570;2023-03-24T04:42:20;9.90;97.90
78550;DHT22;68091;52.130;5.570;2023-03-24T04:44:48;9.80;97.90
78550;DHT22;68091;52.130;5.570;2023-03-24T04:47:21;9.80;98.10
78550;DHT22;68091;52.130;5.570;2023-03-24T04:49:48;9.70;98.30
78550;DHT22;68091;52.130;5.570;2023-03-24T04:52:14;9.70;98.10
78550;DHT22;68091;52.130;5.570;2023-03-24T04:54:40;9.70;98.00
78550;DHT22;68091;52.130;5.570;2023-03-24T04:57:06;9.80;98.20
78550;DHT22;68091;52.130;5.570;2023-03-24T04:59:32;9.70;98.30
78550;DHT22;68091;52.130;5.570;2023-03-24T05:02:01;9.70;98.20
78550;DHT22;68091;52.130;5.570;2023-03-24T05:04:40;9.70;98.30
78550;DHT22;68091;52.130;5.570;2023-03-24T05:07:06;9.70;98.10
78550;DHT22;68091;52.130;5.570;2023-03-24T05:09:32;9.70;97.90
78550;DHT22;68091;52.130;5.570;2023-03-24T05:11:58;9.60;97.90
78550;DHT22;68091;52.130;5.570;2023-03-24T05:14:24;9.60;97.80
78550;DHT22;68091;52.130;5.570;2023-03-24T05:16:50;9.70;97.60
78550;DHT22;68091;52.130;5.570;2023-03-24T05:19:16;9.60;97.70
78550;DHT22;68091;52.130;5.570;2023-03-24T05:21:41;9.60;97.70
78550;DHT22;68091;52.130;5.570;2023-03-24T05:24:07;9.60;97.70
78550;DHT22;68091;52.130;5.570;2023-03-24T05:26:34;9.60;97.50
78550;DHT22;68091;52.130;5.570;2023-03-24T05:29:00;9.60;97.70
78550;DHT22;68091;52.130;5.570;2023-03-24T05:31:26;9.60;97.60
78550;DHT22;68091;52.130;5.570;2023-03-24T05:33:52;9.50;97.40
78550;DHT22;68091;52.130;5.570;2023-03-24T05:36:17;9.50;97.40
78550;DHT22;68091;52.130;5.570;2023-03-24T05:38:43;9.50;97.50
78550;DHT22;68091;52.130;5.570;2023-03-24T05:41:09;9.50;97.30
78550;DHT22;68091;52.130;5.570;2023-03-24T05:43:35;9.50;97.20
78550;DHT22;68091;52.130;5.570;2023-03-24T05:46:01;9.50;97.10
78550;DHT22;68091;52.130;5.570;2023-03-24T05:48:27;9.50;97.20
78550;DHT22;68091;52.130;5.570;2023-03-24T05:50:53;9.50;97.10
78550;DHT22;68091;52.130;5.570;2023-03-24T05:53:19;9.40;97.10
78550;DHT22;68091;52.130;5.570;2023-03-24T05:55:45;9.50;97.30
78550;DHT22;68091;52.130;5.570;2023-03-24T05:58:11;9.50;97.10
78550;DHT22;68091;52.130;5.570;2023-03-24T06:00:37;9.50;97.20
78550;DHT22;68091;52.130;5.570;2023-03-24T06:03:03;9.50;97.20
78550;DHT22;68091;52.130;5.570;2023-03-24T06:05:30;9.50;97.40
78550;DHT22;68091;52.130;5.570;2023-03-24T06:07:57;9.50;97.30
78550;DHT22;68091;52.130;5.570;2023-03-24T06:10:27;9.50;97.10
78550;DHT22;68091;52.130;5.570;2023-03-24T06:12:56;9.50;97.20
78550;DHT22;68091;52.130;5.570;2023-03-24T06:15:23;9.50;97.10
78550;DHT22;68091;52.130;5.570;2023-03-24T06:17:52;9.60;97.30
78550;DHT22;68091;52.130;5.570;2023-03-24T06:20:20;9.60;97.20
78550;DHT22;68091;52.130;5.570;2023-03-24T06:22:46;9.60;97.00
78550;DHT22;68091;52.130;5.570;2023-03-24T06:25:15;9.60;96.90
78550;DHT22;68091;52.130;5.570;2023-03-24T06:27:43;9.60;97.10
78550;DHT22;68091;52.130;5.570;2023-03-24T06:30:16;9.60;97.20
78550;DHT22;68091;52.130;5.570;2023-03-24T06:32:43;9.70;97.00
78550;DHT22;68091;52.130;5.570;2023-03-24T06:35:14;9.70;97.00
78550;DHT22;68091;52.130;5.570;2023-03-24T06:37:41;9.60;97.30
78550;DHT22;68091;52.130;5.570;2023-03-24T06:40:08;9.70;97.00
78550;DHT22;68091;52.130;5.570;2023-03-24T06:42:39;9.80;96.80
78550;DHT22;68091;52.130;5.570;2023-03-24T06:45:06;9.80;96.80
78550;DHT22;68091;52.130;5.570;2023-03-24T06:47:32;9.80;96.90
78550;DHT22;68091;52.130;5.570;2023-03-24T06:49:58;9.80;96.60
78550;DHT22;68091;52.130;5.570;2023-03-24T06:52:24;9.90;96.60
78550;DHT22;68091;52.130;5.570;2023-03-24T06:54:50;9.90;96.40
78550;DHT22;68091;52.130;5.570;2023-03-24T06:57:15;10.00;96.10
78550;DHT22;68091;52.130;5.570;2023-03-24T06:59:42;10.00;96.10
78550;DHT22;68091;52.130;5.570;2023-03-24T07:02:10;10.10;96.10
78550;DHT22;68091;52.130;5.570;2023-03-24T07:04:37;10.10;96.20
78550;DHT22;68091;52.130;5.570;2023-03-24T07:07:02;10.10;95.90
78550;DHT22;68091;52.130;5.570;2023-03-24T07:09:29;10.10;95.70
78550;DHT22;68091;52.130;5.570;2023-03-24T07:11:55;10.10;95.70
78550;DHT22;68091;52.130;5.570;2023-03-24T07:14:21;10.20;95.60
78550;DHT22;68091;52.130;5.570;2023-03-24T07:16:50;10.30;95.20
78550;DHT22;68091;52.130;5.570;2023-03-24T07:19:17;10.30;95.40
78550;DHT22;68091;52.130;5.570;2023-03-24T07:21:42;10.40;95.00
78550;DHT22;68091;52.130;5.570;2023-03-24T07:24:08;10.40;94.40
78550;DHT22;68091;52.130;5.570;2023-03-24T07:26:34;10.30;94.30
78550;DHT22;68091;52.130;5.570;2023-03-24T07:29:00;10.30;94.60
78550;DHT22;68091;52.130;5.570;2023-03-24T07:31:26;10.30;94.50
78550;DHT22;68091;52.130;5.570;2023-03-24T07:33:52;10.30;94.40
78550;DHT22;68091;52.130;5.570;2023-03-24T07:36:18;10.40;94.60
78550;DHT22;68091;52.130;5.570;2023-03-24T07:38:44;10.50;94.30
78550;DHT22;68091;52.130;5.570;2023-03-24T07:41:09;10.60;94.00
78550;DHT22;68091;52.130;5.570;2023-03-24T07:43:38;10.50;93.90
78550;DHT22;68091;52.130;5.570;2023-03-24T07:46:06;10.60;93.50
78550;DHT22;68091;52.130;5.570;2023-03-24T07:48:32;10.60;94.10
78550;DHT22;68091;52.130;5.570;2023-03-24T07:50:58;10.60;93.60
78550;DHT22;68091;52.130;5.570;2023-03-24T07:53:24;10.60;93.80
78550;DHT22;68091;52.130;5.570;2023-03-24T07:55:50;10.70;93.80
78550;DHT22;68091;52.130;5.570;2023-03-24T07:58:15;10.70;93.80
78550;DHT22;68091;52.130;5.570;2023-03-24T08:00:41;10.90;93.50
78550;DHT22;68091;52.130;5.570;2023-03-24T08:03:12;10.90;93.50
78550;DHT22;68091;52.130;5.570;2023-03-24T08:05:40;11.00;92.80
78550;DHT22;68091;52.130;5.570;2023-03-24T08:08:06;11.10;92.70
78550;DHT22;68091;52.130;5.570;2023-03-24T08:10:32;11.10;92.80
78550;DHT22;68091;52.130;5.570;2023-03-24T08:12:59;11.20;92.50
78550;DHT22;68091;52.130;5.570;2023-03-24T08:15:25;11.30;92.50
78550;DHT22;68091;52.130;5.570;2023-03-24T08:17:51;11.30;92.60
78550;DHT22;68091;52.130;5.570;2023-03-24T08:20:20;11.40;92.30
78550;DHT22;68091;52.130;5.570;2023-03-24T08:22:48;11.50;92.50
78550;DHT22;68091;52.130;5.570;2023-03-24T08:25:15;11.70;92.10
78550;DHT22;68091;52.130;5.570;2023-03-24T08:27:42;11.70;91.50
78550;DHT22;68091;52.130;5.570;2023-03-24T08:30:10;11.60;91.70
78550;DHT22;68091;52.130;5.570;2023-03-24T08:32:43;11.70;91.90
78550;DHT22;68091;52.130;5.570;2023-03-24T08:35:11;11.70;91.50
78550;DHT22;68091;52.130;5.570;2023-03-24T08:37:40;11.70;91.10
78550;DHT22;68091;52.130;5.570;2023-03-24T08:40:08;11.70;91.10
78550;DHT22;68091;52.130;5.570;2023-03-24T08:42:39;11.70;91.20
78550;DHT22;68091;52.130;5.570;2023-03-24T08:45:06;11.80;90.60
78550;DHT22;68091;52.130;5.570;2023-03-24T08:47:34;11.90;90.90
78550;DHT22;68091;52.130;5.570;2023-03-24T08:50:00;12.00;90.70
78550;DHT22;68091;52.130;5.570;2023-03-24T08:52:25;12.10;90.40
78550;DHT22;68091;52.130;5.570;2023-03-24T08:54:52;12.10;90.30
78550;DHT22;68091;52.130;5.570;2023-03-24T08:57:18;12.20;90.00
78550;DHT22;68091;52.130;5.570;2023-03-24T08:59:44;12.40;90.00
78550;DHT22;68091;52.130;5.570;2023-03-24T09:02:11;12.60;89.80
78550;DHT22;68091;52.130;5.570;2023-03-24T09:04:37;12.90;89.50
78550;DHT22;68091;52.130;5.570;2023-03-24T09:07:04;13.00;85.30
78550;DHT22;68091;52.130;5.570;2023-03-24T09:09:30;12.80;87.70
78550;DHT22;68091;52.130;5.570;2023-03-24T09:11:57;13.00;86.50
78550;DHT22;68091;52.130;5.570;2023-03-24T09:14:23;13.00;85.70
78550;DHT22;68091;52.130;5.570;2023-03-24T09:16:49;12.90;86.50
78550;DHT22;68091;52.130;5.570;2023-03-24T09:19:16;12.80;85.50
78550;DHT22;68091;52.130;5.570;2023-03-24T09:21:46;12.60;85.80
78550;DHT22;68091;52.130;5.570;2023-03-24T09:24:13;12.50;86.80
78550;DHT22;68091;52.130;5.570;2023-03-24T09:26:39;12.40;86.00
78550;DHT22;68091;52.130;5.570;2023-03-24T09:29:05;12.20;87.20
78550;DHT22;68091;52.130;5.570;2023-03-24T09:31:31;12.30;87.20
78550;DHT22;68091;52.130;5.570;2023-03-24T09:33:57;12.20;87.50
78550;DHT22;68091;52.130;5.570;2023-03-24T09:36:25;12.10;88.20
78550;DHT22;68091;52.130;5.570;2023-03-24T09:38:53;12.20;88.70
78550;DHT22;68091;52.130;5.570;2023-03-24T09:41:28;12.50;89.10
78550;DHT22;68091;52.130;5.570;2023-03-24T09:46:38;12.70;85.50
78550;DHT22;68091;52.130;5.570;2023-03-24T09:49:05;12.90;86.20
78550;DHT22;68091;52.130;5.570;2023-03-24T09:51:40;13.10;85.90
78550;DHT22;68091;52.130;5.570;2023-03-24T09:54:26;13.20;85.80
78550;DHT22;68091;52.130;5.570;2023-03-24T09:56:54;13.30;83.80
78550;DHT22;68091;52.130;5.570;2023-03-24T09:59:34;13.50;84.50
78550;DHT22;68091;52.130;5.570;2023-03-24T10:02:13;13.60;82.70
78550;DHT22;68091;52.130;5.570;2023-03-24T10:04:40;13.80;82.70
78550;DHT22;68091;52.130;5.570;2023-03-24T10:07:15;13.80;83.10
78550;DHT22;68091;52.130;5.570;2023-03-24T10:09:47;13.90;82.90
78550;DHT22;68091;52.130;5.570;2023-03-24T10:12:34;13.90;81.80
78550;DHT22;68091;52.130;5.570;2023-03-24T10:25:53;13.10;79.30
78550;DHT22;68091;52.130;5.570;2023-03-24T10:28:27;12.80;81.20
78550;DHT22;68091;52.130;5.570;2023-03-24T10:30:59;12.60;81.40
78550;DHT22;68091;52.130;5.570;2023-03-24T10:33:27;12.50;80.70
78550;DHT22;68091;52.130;5.570;2023-03-24T10:36:02;12.50;80.30
78550;DHT22;68091;52.130;5.570;2023-03-24T10:38:30;12.70;80.10
78550;DHT22;68091;52.130;5.570;2023-03-24T10:40:56;12.80;80.00
78550;DHT22;68091;52.130;5.570;2023-03-24T10:43:25;12.90;79.00
78550;DHT22;68091;52.130;5.570;2023-03-24T10:45:52;13.00;80.80
78550;DHT22;68091;52.130;5.570;2023-03-24T10:51:04;13.00;79.10
78550;DHT22;68091;52.130;5.570;2023-03-24T10:53:31;12.90;79.40
78550;DHT22;68091;52.130;5.570;2023-03-24T10:55:57;12.90;80.20
78550;DHT22;68091;52.130;5.570;2023-03-24T11:00:53;13.00;79.70
78550;DHT22;68091;52.130;5.570;2023-03-24T11:03:29;13.00;81.40
78550;DHT22;68091;52.130;5.570;2023-03-24T11:06:00;12.80;82.80
78550;DHT22;68091;52.130;5.570;2023-03-24T11:08:44;12.70;82.60
78550;DHT22;68091;52.130;5.570;2023-03-24T11:11:30;12.60;84.00
78550;DHT22;68091;52.130;5.570;2023-03-24T11:14:00;12.50;84.80
78550;DHT22;68091;52.130;5.570;2023-03-24T11:16:37;12.40;84.40
78550;DHT22;68091;52.130;5.570;2023-03-24T11:19:05;12.30;84.90
78550;DHT22;68091;52.130;5.570;2023-03-24T11:21:35;12.40;84.50
78550;DHT22;68091;52.130;5.570;2023-03-24T11:24:10;12.50;85.00
78550;DHT22;68091;52.130;5.570;2023-03-24T11:26:38;12.60;85.20
78550;DHT22;68091;52.130;5.570;2023-03-24T11:29:15;12.70;85.60
78550;DHT22;68091;52.130;5.570;2023-03-24T11:31:50;12.90;86.20
78550;DHT22;68091;52.130;5.570;2023-03-24T11:34:21;12.90;85.90
78550;DHT22;68091;52.130;5.570;2023-03-24T11:36:56;13.00;86.10
78550;DHT22;68091;52.130;5.570;2023-03-24T11:39:25;13.30;84.60
78550;DHT22;68091;52.130;5.570;2023-03-24T11:47:29;13.30;83.60
78550;DHT22;68091;52.130;5.570;2023-03-24T11:52:44;12.90;84.30
78550;DHT22;68091;52.130;5.570;2023-03-24T11:55:21;12.70;84.90
78550;DHT22;68091;52.130;5.570;2023-03-24T11:58:03;12.60;86.70
78550;DHT22;68091;52.130;5.570;2023-03-24T12:00:41;12.60;86.70
78550;DHT22;68091;52.130;5.570;2023-03-24T12:06:26;12.30;87.60
78550;DHT22;68091;52.130;5.570;2023-03-24T12:09:04;12.10;88.80
78550;DHT22;68091;52.130;5.570;2023-03-24T12:14:14;12.20;89.00
78550;DHT22;68091;52.130;5.570;2023-03-24T12:16:55;12.30;89.50
78550;DHT22;68091;52.130;5.570;2023-03-24T12:19:34;12.20;89.90
78550;DHT22;68091;52.130;5.570;2023-03-24T12:22:18;12.10;90.00
78550;DHT22;68091;52.130;5.570;2023-03-24T12:25:27;12.10;90.40
78550;DHT22;68091;52.130;5.570;2023-03-24T12:30:58;12.40;89.50
78550;DHT22;68091;52.130;5.570;2023-03-24T12:39:11;12.60;89.80
78550;DHT22;68091;52.130;5.570;2023-03-24T12:48:12;12.70;88.50
78550;DHT22;68091;52.130;5.570;2023-03-24T12:56:27;13.30;86.30
78550;DHT22;68091;52.130;5.570;2023-03-24T12:59:19;13.40;86.20
78550;DHT22;68091;52.130;5.570;2023-03-24T13:04:41;12.80;87.70
78550;DHT22;68091;52.130;5.570;2023-03-24T13:07:16;12.60;88.40
78550;DHT22;68091;52.130;5.570;2023-03-24T13:09:47;12.50;87.20
78550;DHT22;68091;52.130;5.570;2023-03-24T13:17:36;12.40;90.60
78550;DHT22;68091;52.130;5.570;2023-03-24T13:20:11;12.00;90.90
78550;DHT22;68091;52.130;5.570;2023-03-24T13:22:38;11.50;91.60
78550;DHT22;68091;52.130;5.570;2023-03-24T13:25:12;11.20;92.90
78550;DHT22;68091;52.130;5.570;2023-03-24T13:27:44;11.20;93.50
78550;DHT22;68091;52.130;5.570;2023-03-24T13:30:33;11.30;93.80
78550;DHT22;68091;52.130;5.570;2023-03-24T13:33:14;11.50;93.90
78550;DHT22;68091;52.130;5.570;2023-03-24T13:36:18;11.60;92.90
78550;DHT22;68091;52.130;5.570;2023-03-24T13:38:52;11.70;92.90
78550;DHT22;68091;52.130;5.570;2023-03-24T13:41:23;11.80;93.00
78550;DHT22;68091;52.130;5.570;2023-03-24T13:44:05;12.10;92.80
78550;DHT22;68091;52.130;5.570;2023-03-24T13:46:35;12.60;91.90
78550;DHT22;68091;52.130;5.570;2023-03-24T13:49:04;12.90;90.50
78550;DHT22;68091;52.130;5.570;2023-03-24T13:51:35;13.10;90.60
78550;DHT22;68091;52.130;5.570;2023-03-24T13:54:19;13.50;90.30
78550;DHT22;68091;52.130;5.570;2023-03-24T13:57:23;13.60;89.70
78550;DHT22;68091;52.130;5.570;2023-03-24T14:02:52;13.00;88.50
78550;DHT22;68091;52.130;5.570;2023-03-24T14:21:01;12.00;90.50
78550;DHT22;68091;52.130;5.570;2023-03-24T14:23:44;12.00;91.00
78550;DHT22;68091;52.130;5.570;2023-03-24T14:38:54;12.20;90.70
78550;DHT22;68091;52.130;5.570;2023-03-24T14:41:29;12.10;90.80
78550;DHT22;68091;52.130;5.570;2023-03-24T14:44:03;12.10;90.80
78550;DHT22;68091;52.130;5.570;2023-03-24T14:49:20;12.10;90.60
78550;DHT22;68091;52.130;5.570;2023-03-24T14:56:58;12.20;89.50
78550;DHT22;68091;52.130;5.570;2023-03-24T15:02:34;12.70;88.70
78550;DHT22;68091;52.130;5.570;2023-03-24T15:08:13;12.90;87.20
78550;DHT22;68091;52.130;5.570;2023-03-24T15:13:36;12.90;86.50
78550;DHT22;68091;52.130;5.570;2023-03-24T15:18:55;12.80;88.00
78550;DHT22;68091;52.130;5.570;2023-03-24T15:21:22;13.10;88.00
78550;DHT22;68091;52.130;5.570;2023-03-24T15:23:49;13.50;85.70
78550;DHT22;68091;52.130;5.570;2023-03-24T15:26:20;13.60;85.90
78550;DHT22;68091;52.130;5.570;2023-03-24T15:29:00;13.70;85.00
78550;DHT22;68091;52.130;5.570;2023-03-24T15:31:34;13.60;84.30
78550;DHT22;68091;52.130;5.570;2023-03-24T15:34:26;13.20;85.10
78550;DHT22;68091;52.130;5.570;2023-03-24T15:36:54;13.20;86.30
78550;DHT22;68091;52.130;5.570;2023-03-24T15:39:28;13.10;86.20
78550;DHT22;68091;52.130;5.570;2023-03-24T15:41:54;12.90;86.50
78550;DHT22;68091;52.130;5.570;2023-03-24T15:44:29;12.70;88.30
78550;DHT22;68091;52.130;5.570;2023-03-24T15:46:58;12.80;87.30
78550;DHT22;68091;52.130;5.570;2023-03-24T15:49:31;13.00;87.70
78550;DHT22;68091;52.130;5.570;2023-03-24T15:54:52;13.70;84.00
78550;DHT22;68091;52.130;5.570;2023-03-24T15:57:21;14.20;81.50
78550;DHT22;68091;52.130;5.570;2023-03-24T16:02:35;13.30;84.70
78550;DHT22;68091;52.130;5.570;2023-03-24T16:05:13;13.10;86.30
78550;DHT22;68091;52.130;5.570;2023-03-24T16:07:42;13.10;86.30
78550;DHT22;68091;52.130;5.570;2023-03-24T16:10:26;12.90;86.90
78550;DHT22;68091;52.130;5.570;2023-03-24T16:12:53;12.80;87.30
78550;DHT22;68091;52.130;5.570;2023-03-24T16:15:19;12.70;87.20
78550;DHT22;68091;52.130;5.570;2023-03-24T16:17:44;12.70;87.60
78550;DHT22;68091;52.130;5.570;2023-03-24T16:20:20;12.80;87.30
78550;DHT22;68091;52.130;5.570;2023-03-24T16:22:46;12.70;87.80
78550;DHT22;68091;52.130;5.570;2023-03-24T16:25:12;12.60;88.30
78550;DHT22;68091;52.130;5.570;2023-03-24T16:27:39;12.50;88.00
78550;DHT22;68091;52.130;5.570;2023-03-24T16:30:32;12.40;87.90
78550;DHT22;68091;52.130;5.570;2023-03-24T16:33:03;12.50;89.00
78550;DHT22;68091;52.130;5.570;2023-03-24T16:35:29;12.50;88.30
78550;DHT22;68091;52.130;5.570;2023-03-24T16:37:55;12.40;88.30
78550;DHT22;68091;52.130;5.570;2023-03-24T16:40:35;12.20;89.00
78550;DHT22;68091;52.130;5.570;2023-03-24T16:43:02;12.20;89.40
78550;DHT22;68091;52.130;5.570;2023-03-24T16:45:31;12.20;90.00
78550;DHT22;68091;52.130;5.570;2023-03-24T16:47:58;12.10;89.50
78550;DHT22;68091;52.130;5.570;2023-03-24T16:50:33;12.10;89.90
78550;DHT22;68091;52.130;5.570;2023-03-24T16:53:00;12.10;90.00
78550;DHT22;68091;52.130;5.570;2023-03-24T16:55:26;12.10;90.10
78550;DHT22;68091;52.130;5.570;2023-03-24T16:57:52;12.20;90.50
78550;DHT22;68091;52.130;5.570;2023-03-24T17:00:18;12.40;90.40
78550;DHT22;68091;52.130;5.570;2023-03-24T17:02:43;12.40;90.00
78550;DHT22;68091;52.130;5.570;2023-03-24T17:07:44;12.10;90.40
78550;DHT22;68091;52.130;5.570;2023-03-24T17:10:09;11.90;90.60
78550;DHT22;68091;52.130;5.570;2023-03-24T17:12:35;11.80;90.70
78550;DHT22;68091;52.130;5.570;2023-03-24T17:15:01;11.80;90.50
78550;DHT22;68091;52.130;5.570;2023-03-24T17:17:27;11.80;90.60
78550;DHT22;68091;52.130;5.570;2023-03-24T17:19:52;11.70;90.80
78550;DHT22;68091;52.130;5.570;2023-03-24T17:22:18;11.60;90.90
78550;DHT22;68091;52.130;5.570;2023-03-24T17:24:44;11.60;91.20
78550;DHT22;68091;52.130;5.570;2023-03-24T17:27:15;11.50;91.50
78550;DHT22;68091;52.130;5.570;2023-03-24T17:29:43;11.40;91.80
78550;DHT22;68091;52.130;5.570;2023-03-24T17:32:09;11.40;91.90
78550;DHT22;68091;52.130;5.570;2023-03-24T17:34:35;11.40;91.80
78550;DHT22;68091;52.130;5.570;2023-03-24T17:37:05;11.30;91.90
78550;DHT22;68091;52.130;5.570;2023-03-24T17:39:31;11.40;91.90
78550;DHT22;68091;52.130;5.570;2023-03-24T17:41:57;11.30;92.00
78550;DHT22;68091;52.130;5.570;2023-03-24T17:44:26;11.20;92.20
78550;DHT22;68091;52.130;5.570;2023-03-24T17:46:52;11.20;92.40
78550;DHT22;68091;52.130;5.570;2023-03-24T17:49:18;11.10;92.60
78550;DHT22;68091;52.130;5.570;2023-03-24T17:51:44;11.00;92.90
78550;DHT22;68091;52.130;5.570;2023-03-24T17:54:09;11.00;92.90
78550;DHT22;68091;52.130;5.570;2023-03-24T17:56:36;11.00;92.70
78550;DHT22;68091;52.130;5.570;2023-03-24T17:59:02;11.00;92.80
78550;DHT22;68091;52.130;5.570;2023-03-24T18:01:29;11.00;92.60
78550;DHT22;68091;52.130;5.570;2023-03-24T18:03:55;11.10;92.60
78550;DHT22;68091;52.130;5.570;2023-03-24T18:06:22;11.10;92.80
78550;DHT22;68091;52.130;5.570;2023-03-24T18:08:49;11.10;92.80
78550;DHT22;68091;52.130;5.570;2023-03-24T18:11:15;11.00;92.80
78550;DHT22;68091;52.130;5.570;2023-03-24T18:13:41;11.00;92.60
78550;DHT22;68091;52.130;5.570;2023-03-24T18:16:08;11.00;92.80
78550;DHT22;68091;52.130;5.570;2023-03-24T18:18:34;10.90;92.90
78550;DHT22;68091;52.130;5.570;2023-03-24T18:21:01;10.90;92.90
78550;DHT22;68091;52.130;5.570;2023-03-24T18:23:26;11.00;91.30
78550;DHT22;68091;52.130;5.570;2023-03-24T18:26:02;11.10;91.00
78550;DHT22;68091;52.130;5.570;2023-03-24T18:28:29;11.00;91.20
78550;DHT22;68091;52.130;5.570;2023-03-24T18:30:56;10.90;91.40
78550;DHT22;68091;52.130;5.570;2023-03-24T18:33:22;10.80;91.50
78550;DHT22;68091;52.130;5.570;2023-03-24T18:35:52;10.90;91.70
78550;DHT22;68091;52.130;5.570;2023-03-24T18:38:21;10.70;91.70
78550;DHT22;68091;52.130;5.570;2023-03-24T18:41:08;10.60;91.90
78550;DHT22;68091;52.130;5.570;2023-03-24T18:43:34;10.60;92.40
78550;DHT22;68091;52.130;5.570;2023-03-24T18:46:13;10.40;92.60